sensor_id;sensor_type;location;lat;lon;timestamp;P1;durP1;ratioP1;P2;durP2;ratioP2
77298;SDS011;66361;52.034;20.656;2023-03-11T00:03:31;23.02;;;13.57;;
77298;SDS011;66361;52.034;20.656;2023-03-11T00:07:34;22.58;;;12.05;;
77298;SDS011;66361;52.034;20.656;2023-03-11T00:11:37;25.83;;;13.80;;
77298;SDS011;66361;52.034;20.656;2023-03-11T00:15:42;21.58;;;13.43;;
77298;SDS011;66361;52.034;20.656;2023-03-11T00:19:48;22.10;;;11.93;;
77298;SDS011;66361;52.034;20.656;2023-03-11T00:23:52;22.23;;;13.82;;
77298;SDS011;66361;52.034;20.656;2023-03-11T00:27:55;18.50;;;10.75;;
77298;SDS011;66361;52.034;20.656;2023-03-11T00:31:58;24.88;;;13.23;;
77298;SDS011;66361;52.034;20.656;2023-03-11T00:36:03;23.45;;;13.60;;
77298;SDS011;66361;52.034;20.656;2023-03-11T00:40:10;23.23;;;12.73;;
77298;SDS011;66361;52.034;20.656;2023-03-11T00:44:15;20.08;;;12.02;;
77298;SDS011;66361;52.034;20.656;2023-03-11T00:48:18;23.08;;;12.23;;
77298;SDS011;66361;52.034;20.656;2023-03-11T00:52:23;20.60;;;12.95;;
77298;SDS011;66361;52.034;20.656;2023-03-11T00:56:26;18.95;;;11.57;;
77298;SDS011;66361;52.034;20.656;2023-03-11T01:00:30;23.17;;;11.50;;
77298;SDS011;66361;52.034;20.656;2023-03-11T01:04:33;20.77;;;12.18;;
77298;SDS011;66361;52.034;20.656;2023-03-11T01:08:37;23.50;;;11.88;;
77298;SDS011;66361;52.034;20.656;2023-03-11T01:12:41;19.95;;;11.32;;
77298;SDS011;66361;52.034;20.656;2023-03-11T01:16:44;18.42;;;11.55;;
77298;SDS011;66361;52.034;20.656;2023-03-11T01:20:47;21.35;;;11.05;;
77298;SDS011;66361;52.034;20.656;2023-03-11T01:28:55;17.88;;;9.27;;
77298;SDS011;66361;52.034;20.656;2023-03-11T01:32:58;16.90;;;9.98;;
77298;SDS011;66361;52.034;20.656;2023-03-11T01:37:01;16.75;;;10.15;;
77298;SDS011;66361;52.034;20.656;2023-03-11T01:41:06;20.20;;;10.18;;
77298;SDS011;66361;52.034;20.656;2023-03-11T01:45:37;18.17;;;10.52;;
77298;SDS011;66361;52.034;20.656;2023-03-11T01:49:42;18.67;;;10.80;;
77298;SDS011;66361;52.034;20.656;2023-03-11T01:53:45;20.20;;;10.88;;
77298;SDS011;66361;52.034;20.656;2023-03-11T01:57:50;18.20;;;9.98;;
77298;SDS011;66361;52.034;20.656;2023-03-11T02:01:58;20.90;;;9.57;;
77298;SDS011;66361;52.034;20.656;2023-03-11T02:06:07;19.10;;;9.88;;
77298;SDS011;66361;52.034;20.656;2023-03-11T02:10:13;20.60;;;10.50;;
77298;SDS011;66361;52.034;20.656;2023-03-11T02:14:17;18.30;;;10.65;;
77298;SDS011;66361;52.034;20.656;2023-03-11T02:18:22;20.17;;;10.77;;
77298;SDS011;66361;52.034;20.656;2023-03-11T02:22:25;20.42;;;10.77;;
77298;SDS011;66361;52.034;20.656;2023-03-11T02:26:31;16.60;;;9.60;;
77298;SDS011;66361;52.034;20.656;2023-03-11T02:30:40;17.20;;;10.70;;
77298;SDS011;66361;52.034;20.656;2023-03-11T02:34:45;19.55;;;10.82;;
77298;SDS011;66361;52.034;20.656;2023-03-11T02:38:48;17.80;;;8.55;;
77298;SDS011;66361;52.034;20.656;2023-03-11T02:42:52;19.20;;;9.35;;
77298;SDS011;66361;52.034;20.656;2023-03-11T02:46:59;18.48;;;9.93;;
77298;SDS011;66361;52.034;20.656;2023-03-11T02:51:02;15.07;;;9.13;;
77298;SDS011;66361;52.034;20.656;2023-03-11T02:55:07;16.05;;;8.40;;
77298;SDS011;66361;52.034;20.656;2023-03-11T02:59:12;16.60;;;8.57;;
77298;SDS011;66361;52.034;20.656;2023-03-11T03:03:16;13.70;;;8.57;;
77298;SDS011;66361;52.034;20.656;2023-03-11T03:07:19;17.02;;;9.77;;
77298;SDS011;66361;52.034;20.656;2023-03-11T03:11:22;19.67;;;9.25;;
77298;SDS011;66361;52.034;20.656;2023-03-11T03:15:25;15.65;;;9.13;;
77298;SDS011;66361;52.034;20.656;2023-03-11T03:19:29;14.15;;;8.88;;
77298;SDS011;66361;52.034;20.656;2023-03-11T03:23:32;13.50;;;7.93;;
77298;SDS011;66361;52.034;20.656;2023-03-11T03:27:37;14.07;;;8.27;;
77298;SDS011;66361;52.034;20.656;2023-03-11T03:31:40;13.88;;;8.23;;
77298;SDS011;66361;52.034;20.656;2023-03-11T03:35:45;17.20;;;8.18;;
77298;SDS011;66361;52.034;20.656;2023-03-11T03:39:49;15.65;;;8.27;;
77298;SDS011;66361;52.034;20.656;2023-03-11T03:43:54;13.57;;;7.80;;
77298;SDS011;66361;52.034;20.656;2023-03-11T03:47:58;13.35;;;7.07;;
77298;SDS011;66361;52.034;20.656;2023-03-11T03:52:02;11.93;;;6.75;;
77298;SDS011;66361;52.034;20.656;2023-03-11T03:56:07;11.50;;;8.55;;
77298;SDS011;66361;52.034;20.656;2023-03-11T04:00:12;11.70;;;8.05;;
77298;SDS011;66361;52.034;20.656;2023-03-11T04:04:16;12.35;;;7.30;;
77298;SDS011;66361;52.034;20.656;2023-03-11T04:08:21;11.25;;;6.60;;
77298;SDS011;66361;52.034;20.656;2023-03-11T04:12:24;19.13;;;15.50;;
77298;SDS011;66361;52.034;20.656;2023-03-11T04:16:28;9.85;;;6.35;;
77298;SDS011;66361;52.034;20.656;2023-03-11T04:20:31;11.57;;;6.80;;
77298;SDS011;66361;52.034;20.656;2023-03-11T04:24:35;12.05;;;6.55;;
77298;SDS011;66361;52.034;20.656;2023-03-11T04:28:39;9.55;;;5.38;;
77298;SDS011;66361;52.034;20.656;2023-03-11T04:32:42;7.53;;;5.20;;
77298;SDS011;66361;52.034;20.656;2023-03-11T04:36:45;9.07;;;5.20;;
77298;SDS011;66361;52.034;20.656;2023-03-11T04:40:49;6.78;;;4.85;;
77298;SDS011;66361;52.034;20.656;2023-03-11T04:44:52;8.95;;;4.80;;
77298;SDS011;66361;52.034;20.656;2023-03-11T04:48:55;7.75;;;5.10;;
77298;SDS011;66361;52.034;20.656;2023-03-11T04:57:03;7.88;;;5.05;;
77298;SDS011;66361;52.034;20.656;2023-03-11T05:01:06;9.20;;;5.40;;
77298;SDS011;66361;52.034;20.656;2023-03-11T05:05:09;8.38;;;5.85;;
77298;SDS011;66361;52.034;20.656;2023-03-11T05:09:12;8.98;;;5.95;;
77298;SDS011;66361;52.034;20.656;2023-03-11T05:13:16;10.57;;;6.10;;
77298;SDS011;66361;52.034;20.656;2023-03-11T05:17:20;8.50;;;5.60;;
77298;SDS011;66361;52.034;20.656;2023-03-11T05:21:24;8.60;;;5.45;;
77298;SDS011;66361;52.034;20.656;2023-03-11T05:25:27;8.32;;;5.40;;
77298;SDS011;66361;52.034;20.656;2023-03-11T05:29:32;8.90;;;5.75;;
77298;SDS011;66361;52.034;20.656;2023-03-11T05:33:36;11.00;;;6.95;;
77298;SDS011;66361;52.034;20.656;2023-03-11T05:37:39;10.90;;;6.35;;
77298;SDS011;66361;52.034;20.656;2023-03-11T05:41:42;9.25;;;6.50;;
77298;SDS011;66361;52.034;20.656;2023-03-11T05:45:46;9.75;;;7.00;;
77298;SDS011;66361;52.034;20.656;2023-03-11T05:49:49;11.15;;;6.95;;
77298;SDS011;66361;52.034;20.656;2023-03-11T05:53:52;10.45;;;6.93;;
77298;SDS011;66361;52.034;20.656;2023-03-11T05:57:56;10.45;;;6.45;;
77298;SDS011;66361;52.034;20.656;2023-03-11T06:06:04;7.88;;;6.15;;
77298;SDS011;66361;52.034;20.656;2023-03-11T06:10:09;13.70;;;7.55;;
77298;SDS011;66361;52.034;20.656;2023-03-11T06:14:13;8.90;;;6.32;;
77298;SDS011;66361;52.034;20.656;2023-03-11T06:22:20;10.27;;;7.28;;
77298;SDS011;66361;52.034;20.656;2023-03-11T06:26:23;9.77;;;6.68;;
77298;SDS011;66361;52.034;20.656;2023-03-11T06:30:25;12.45;;;6.25;;
77298;SDS011;66361;52.034;20.656;2023-03-11T06:34:30;10.50;;;7.10;;
77298;SDS011;66361;52.034;20.656;2023-03-11T06:38:33;9.82;;;6.60;;
77298;SDS011;66361;52.034;20.656;2023-03-11T06:42:37;12.27;;;7.28;;
77298;SDS011;66361;52.034;20.656;2023-03-11T06:46:40;11.10;;;6.88;;
77298;SDS011;66361;52.034;20.656;2023-03-11T06:50:53;10.25;;;6.75;;
77298;SDS011;66361;52.034;20.656;2023-03-11T06:54:57;9.80;;;7.18;;
77298;SDS011;66361;52.034;20.656;2023-03-11T06:59:00;8.25;;;5.53;;
77298;SDS011;66361;52.034;20.656;2023-03-11T07:03:03;8.80;;;6.25;;
77298;SDS011;66361;52.034;20.656;2023-03-11T07:07:07;7.68;;;5.72;;
77298;SDS011;66361;52.034;20.656;2023-03-11T07:11:11;6.63;;;4.90;;
77298;SDS011;66361;52.034;20.656;2023-03-11T07:15:16;6.30;;;4.97;;
77298;SDS011;66361;52.034;20.656;2023-03-11T07:19:20;7.78;;;5.18;;
77298;SDS011;66361;52.034;20.656;2023-03-11T07:23:24;7.97;;;6.60;;
77298;SDS011;66361;52.034;20.656;2023-03-11T07:27:28;10.25;;;5.13;;
77298;SDS011;66361;52.034;20.656;2023-03-11T07:31:31;9.38;;;5.30;;
77298;SDS011;66361;52.034;20.656;2023-03-11T07:35:37;7.43;;;5.13;;
77298;SDS011;66361;52.034;20.656;2023-03-11T07:39:42;10.57;;;6.53;;
77298;SDS011;66361;52.034;20.656;2023-03-11T07:43:46;10.10;;;5.97;;
77298;SDS011;66361;52.034;20.656;2023-03-11T07:47:48;9.98;;;6.47;;
77298;SDS011;66361;52.034;20.656;2023-03-11T07:51:52;11.63;;;7.13;;
77298;SDS011;66361;52.034;20.656;2023-03-11T07:55:56;13.00;;;7.72;;
77298;SDS011;66361;52.034;20.656;2023-03-11T08:00:03;13.63;;;8.45;;
77298;SDS011;66361;52.034;20.656;2023-03-11T08:04:08;7.70;;;5.60;;
77298;SDS011;66361;52.034;20.656;2023-03-11T08:08:14;16.70;;;9.52;;
77298;SDS011;66361;52.034;20.656;2023-03-11T08:12:19;16.33;;;9.77;;
77298;SDS011;66361;52.034;20.656;2023-03-11T08:16:21;15.48;;;8.23;;
77298;SDS011;66361;52.034;20.656;2023-03-11T08:20:27;16.30;;;10.23;;
77298;SDS011;66361;52.034;20.656;2023-03-11T08:24:30;14.55;;;8.55;;
77298;SDS011;66361;52.034;20.656;2023-03-11T08:28:34;9.80;;;6.30;;
77298;SDS011;66361;52.034;20.656;2023-03-11T08:32:38;13.73;;;7.93;;
77298;SDS011;66361;52.034;20.656;2023-03-11T08:36:41;14.68;;;8.82;;
77298;SDS011;66361;52.034;20.656;2023-03-11T08:40:45;12.68;;;7.85;;
77298;SDS011;66361;52.034;20.656;2023-03-11T08:48:55;13.50;;;8.77;;
77298;SDS011;66361;52.034;20.656;2023-03-11T08:53:01;12.23;;;7.78;;
77298;SDS011;66361;52.034;20.656;2023-03-11T08:57:04;10.55;;;6.60;;
77298;SDS011;66361;52.034;20.656;2023-03-11T09:01:09;7.30;;;4.75;;
77298;SDS011;66361;52.034;20.656;2023-03-11T09:05:13;5.95;;;4.03;;
77298;SDS011;66361;52.034;20.656;2023-03-11T09:09:17;7.25;;;3.40;;
77298;SDS011;66361;52.034;20.656;2023-03-11T09:13:21;6.03;;;4.15;;
77298;SDS011;66361;52.034;20.656;2023-03-11T09:17:25;6.55;;;4.30;;
77298;SDS011;66361;52.034;20.656;2023-03-11T09:21:28;6.72;;;4.68;;
77298;SDS011;66361;52.034;20.656;2023-03-11T09:25:31;5.07;;;3.08;;
77298;SDS011;66361;52.034;20.656;2023-03-11T09:29:37;6.43;;;4.15;;
77298;SDS011;66361;52.034;20.656;2023-03-11T09:33:42;6.45;;;4.80;;
77298;SDS011;66361;52.034;20.656;2023-03-11T09:37:47;14.43;;;8.68;;
77298;SDS011;66361;52.034;20.656;2023-03-11T09:41:51;19.88;;;12.05;;
77298;SDS011;66361;52.034;20.656;2023-03-11T09:46:00;23.40;;;13.15;;
77298;SDS011;66361;52.034;20.656;2023-03-11T09:50:22;19.30;;;12.73;;
77298;SDS011;66361;52.034;20.656;2023-03-11T09:54:35;12.85;;;7.13;;
77298;SDS011;66361;52.034;20.656;2023-03-11T09:58:42;17.33;;;10.25;;
77298;SDS011;66361;52.034;20.656;2023-03-11T10:02:48;15.75;;;9.63;;
77298;SDS011;66361;52.034;20.656;2023-03-11T10:06:57;14.10;;;8.13;;
77298;SDS011;66361;52.034;20.656;2023-03-11T10:11:04;7.88;;;5.00;;
77298;SDS011;66361;52.034;20.656;2023-03-11T10:15:19;5.88;;;4.78;;
77298;SDS011;66361;52.034;20.656;2023-03-11T10:19:33;8.60;;;6.13;;
77298;SDS011;66361;52.034;20.656;2023-03-11T10:23:59;7.88;;;4.75;;
77298;SDS011;66361;52.034;20.656;2023-03-11T10:28:16;9.90;;;6.80;;
77298;SDS011;66361;52.034;20.656;2023-03-11T10:32:23;8.52;;;5.85;;
77298;SDS011;66361;52.034;20.656;2023-03-11T10:36:33;8.82;;;6.72;;
77298;SDS011;66361;52.034;20.656;2023-03-11T10:40:42;6.63;;;5.75;;
77298;SDS011;66361;52.034;20.656;2023-03-11T10:44:51;6.10;;;5.13;;
77298;SDS011;66361;52.034;20.656;2023-03-11T10:48:54;6.60;;;5.22;;
77298;SDS011;66361;52.034;20.656;2023-03-11T10:53:04;8.32;;;5.93;;
77298;SDS011;66361;52.034;20.656;2023-03-11T10:57:20;6.88;;;5.00;;
77298;SDS011;66361;52.034;20.656;2023-03-11T11:01:26;6.60;;;4.88;;
77298;SDS011;66361;52.034;20.656;2023-03-11T11:05:30;6.50;;;5.50;;
77298;SDS011;66361;52.034;20.656;2023-03-11T11:09:34;8.93;;;6.97;;
77298;SDS011;66361;52.034;20.656;2023-03-11T11:13:39;5.95;;;4.70;;
77298;SDS011;66361;52.034;20.656;2023-03-11T11:17:58;7.93;;;4.95;;
77298;SDS011;66361;52.034;20.656;2023-03-11T11:22:03;7.13;;;5.38;;
77298;SDS011;66361;52.034;20.656;2023-03-11T11:26:13;8.32;;;7.45;;
77298;SDS011;66361;52.034;20.656;2023-03-11T11:30:20;4.72;;;3.53;;
77298;SDS011;66361;52.034;20.656;2023-03-11T11:34:26;10.85;;;6.50;;
77298;SDS011;66361;52.034;20.656;2023-03-11T11:38:31;6.10;;;4.50;;
77298;SDS011;66361;52.034;20.656;2023-03-11T11:42:34;7.28;;;5.30;;
77298;SDS011;66361;52.034;20.656;2023-03-11T11:46:41;8.50;;;6.10;;
77298;SDS011;66361;52.034;20.656;2023-03-11T11:50:50;7.50;;;5.57;;
77298;SDS011;66361;52.034;20.656;2023-03-11T11:54:56;9.05;;;6.72;;
77298;SDS011;66361;52.034;20.656;2023-03-11T11:59:04;8.40;;;6.22;;
77298;SDS011;66361;52.034;20.656;2023-03-11T12:03:18;9.45;;;6.00;;
77298;SDS011;66361;52.034;20.656;2023-03-11T12:07:37;11.00;;;7.03;;
77298;SDS011;66361;52.034;20.656;2023-03-11T12:11:48;11.10;;;7.90;;
77298;SDS011;66361;52.034;20.656;2023-03-11T12:15:57;5.50;;;5.00;;
77298;SDS011;66361;52.034;20.656;2023-03-11T12:20:07;9.02;;;6.32;;
77298;SDS011;66361;52.034;20.656;2023-03-11T12:24:19;10.48;;;6.57;;
77298;SDS011;66361;52.034;20.656;2023-03-11T12:28:38;11.75;;;7.53;;
77298;SDS011;66361;52.034;20.656;2023-03-11T12:32:46;7.68;;;6.85;;
77298;SDS011;66361;52.034;20.656;2023-03-11T12:36:54;13.70;;;8.50;;
77298;SDS011;66361;52.034;20.656;2023-03-11T12:41:04;7.72;;;5.57;;
77298;SDS011;66361;52.034;20.656;2023-03-11T12:49:51;8.73;;;7.22;;
77298;SDS011;66361;52.034;20.656;2023-03-11T12:53:57;14.85;;;8.90;;
77298;SDS011;66361;52.034;20.656;2023-03-11T12:58:04;8.25;;;5.57;;
77298;SDS011;66361;52.034;20.656;2023-03-11T13:02:27;9.10;;;6.35;;
77298;SDS011;66361;52.034;20.656;2023-03-11T13:06:49;9.90;;;7.07;;
77298;SDS011;66361;52.034;20.656;2023-03-11T13:11:27;7.22;;;6.47;;
77298;SDS011;66361;52.034;20.656;2023-03-11T13:15:38;10.23;;;6.60;;
77298;SDS011;66361;52.034;20.656;2023-03-11T13:19:47;11.18;;;8.45;;
77298;SDS011;66361;52.034;20.656;2023-03-11T13:23:51;8.77;;;7.05;;
77298;SDS011;66361;52.034;20.656;2023-03-11T13:33:12;9.05;;;6.60;;
77298;SDS011;66361;52.034;20.656;2023-03-11T13:37:25;5.57;;;4.95;;
77298;SDS011;66361;52.034;20.656;2023-03-11T13:41:39;8.57;;;7.03;;
77298;SDS011;66361;52.034;20.656;2023-03-11T13:45:45;7.30;;;6.60;;
77298;SDS011;66361;52.034;20.656;2023-03-11T13:49:54;10.73;;;7.60;;
77298;SDS011;66361;52.034;20.656;2023-03-11T13:54:04;7.30;;;6.35;;
77298;SDS011;66361;52.034;20.656;2023-03-11T13:58:25;12.43;;;7.80;;
77298;SDS011;66361;52.034;20.656;2023-03-11T14:02:29;10.73;;;7.68;;
77298;SDS011;66361;52.034;20.656;2023-03-11T14:06:34;7.95;;;6.45;;
77298;SDS011;66361;52.034;20.656;2023-03-11T14:10:37;7.13;;;6.05;;
77298;SDS011;66361;52.034;20.656;2023-03-11T14:14:43;11.45;;;7.13;;
77298;SDS011;66361;52.034;20.656;2023-03-11T14:18:59;10.95;;;6.15;;
77298;SDS011;66361;52.034;20.656;2023-03-11T14:23:10;10.43;;;7.43;;
77298;SDS011;66361;52.034;20.656;2023-03-11T14:27:19;10.52;;;5.63;;
77298;SDS011;66361;52.034;20.656;2023-03-11T14:31:25;9.32;;;6.65;;
77298;SDS011;66361;52.034;20.656;2023-03-11T14:35:32;8.90;;;6.20;;
77298;SDS011;66361;52.034;20.656;2023-03-11T14:39:42;8.00;;;5.65;;
77298;SDS011;66361;52.034;20.656;2023-03-11T14:43:49;8.48;;;5.80;;
77298;SDS011;66361;52.034;20.656;2023-03-11T14:47:55;5.65;;;4.22;;
77298;SDS011;66361;52.034;20.656;2023-03-11T14:52:07;6.05;;;4.53;;
77298;SDS011;66361;52.034;20.656;2023-03-11T14:56:17;5.97;;;4.32;;
77298;SDS011;66361;52.034;20.656;2023-03-11T15:00:24;5.10;;;3.63;;
77298;SDS011;66361;52.034;20.656;2023-03-11T15:04:30;8.55;;;6.10;;
77298;SDS011;66361;52.034;20.656;2023-03-11T15:08:41;6.40;;;4.50;;
77298;SDS011;66361;52.034;20.656;2023-03-11T15:12:48;10.10;;;5.60;;
77298;SDS011;66361;52.034;20.656;2023-03-11T15:16:51;7.13;;;4.78;;
77298;SDS011;66361;52.034;20.656;2023-03-11T15:21:00;7.32;;;3.58;;
77298;SDS011;66361;52.034;20.656;2023-03-11T15:25:13;4.57;;;3.97;;
77298;SDS011;66361;52.034;20.656;2023-03-11T15:29:20;7.97;;;5.15;;
77298;SDS011;66361;52.034;20.656;2023-03-11T15:33:30;7.75;;;5.28;;
77298;SDS011;66361;52.034;20.656;2023-03-11T15:37:35;5.88;;;3.80;;
77298;SDS011;66361;52.034;20.656;2023-03-11T15:41:41;8.07;;;5.45;;
77298;SDS011;66361;52.034;20.656;2023-03-11T15:45:47;4.40;;;3.03;;
77298;SDS011;66361;52.034;20.656;2023-03-11T15:49:51;11.35;;;6.70;;
77298;SDS011;66361;52.034;20.656;2023-03-11T15:53:54;10.27;;;5.50;;
77298;SDS011;66361;52.034;20.656;2023-03-11T15:58:00;6.57;;;4.50;;
77298;SDS011;66361;52.034;20.656;2023-03-11T16:02:10;4.95;;;2.88;;
77298;SDS011;66361;52.034;20.656;2023-03-11T16:06:22;7.55;;;4.55;;
77298;SDS011;66361;52.034;20.656;2023-03-11T16:10:25;8.10;;;5.28;;
77298;SDS011;66361;52.034;20.656;2023-03-11T16:14:29;6.68;;;3.45;;
77298;SDS011;66361;52.034;20.656;2023-03-11T16:18:34;5.18;;;3.80;;
77298;SDS011;66361;52.034;20.656;2023-03-11T16:22:38;6.30;;;4.25;;
77298;SDS011;66361;52.034;20.656;2023-03-11T16:26:49;6.05;;;3.67;;
77298;SDS011;66361;52.034;20.656;2023-03-11T16:30:53;5.90;;;3.97;;
77298;SDS011;66361;52.034;20.656;2023-03-11T16:34:58;4.88;;;3.58;;
77298;SDS011;66361;52.034;20.656;2023-03-11T16:39:01;5.18;;;4.15;;
77298;SDS011;66361;52.034;20.656;2023-03-11T16:43:05;4.20;;;2.97;;
77298;SDS011;66361;52.034;20.656;2023-03-11T16:47:09;5.15;;;3.75;;
77298;SDS011;66361;52.034;20.656;2023-03-11T16:51:13;7.15;;;5.75;;
77298;SDS011;66361;52.034;20.656;2023-03-11T16:55:16;7.50;;;5.97;;
77298;SDS011;66361;52.034;20.656;2023-03-11T16:59:20;8.82;;;6.78;;
77298;SDS011;66361;52.034;20.656;2023-03-11T17:03:22;10.38;;;6.32;;
77298;SDS011;66361;52.034;20.656;2023-03-11T17:07:33;8.27;;;5.82;;
77298;SDS011;66361;52.034;20.656;2023-03-11T17:11:40;10.48;;;5.75;;
77298;SDS011;66361;52.034;20.656;2023-03-11T17:15:42;11.35;;;6.43;;
77298;SDS011;66361;52.034;20.656;2023-03-11T17:19:45;6.13;;;4.15;;
77298;SDS011;66361;52.034;20.656;2023-03-11T17:23:50;11.50;;;6.13;;
77298;SDS011;66361;52.034;20.656;2023-03-11T17:27:54;9.40;;;5.85;;
77298;SDS011;66361;52.034;20.656;2023-03-11T17:31:57;4.75;;;3.30;;
77298;SDS011;66361;52.034;20.656;2023-03-11T17:36:01;8.75;;;4.55;;
77298;SDS011;66361;52.034;20.656;2023-03-11T17:40:07;6.53;;;4.93;;
77298;SDS011;66361;52.034;20.656;2023-03-11T17:44:11;8.25;;;5.20;;
77298;SDS011;66361;52.034;20.656;2023-03-11T17:48:15;9.45;;;5.40;;
77298;SDS011;66361;52.034;20.656;2023-03-11T17:52:18;6.88;;;3.20;;
77298;SDS011;66361;52.034;20.656;2023-03-11T17:56:23;4.35;;;3.20;;
77298;SDS011;66361;52.034;20.656;2023-03-11T18:00:27;5.80;;;3.45;;
77298;SDS011;66361;52.034;20.656;2023-03-11T18:04:30;3.13;;;2.33;;
77298;SDS011;66361;52.034;20.656;2023-03-11T18:08:35;4.03;;;3.00;;
77298;SDS011;66361;52.034;20.656;2023-03-11T18:12:44;7.22;;;3.80;;
77298;SDS011;66361;52.034;20.656;2023-03-11T18:16:48;3.63;;;3.28;;
77298;SDS011;66361;52.034;20.656;2023-03-11T18:20:52;4.05;;;2.55;;
77298;SDS011;66361;52.034;20.656;2023-03-11T18:24:55;3.78;;;2.80;;
77298;SDS011;66361;52.034;20.656;2023-03-11T18:28:59;6.95;;;2.80;;
77298;SDS011;66361;52.034;20.656;2023-03-11T18:33:02;5.70;;;3.60;;
77298;SDS011;66361;52.034;20.656;2023-03-11T18:37:06;5.25;;;2.97;;
77298;SDS011;66361;52.034;20.656;2023-03-11T18:41:09;5.63;;;4.18;;
77298;SDS011;66361;52.034;20.656;2023-03-11T18:45:14;3.95;;;3.22;;
77298;SDS011;66361;52.034;20.656;2023-03-11T18:49:20;5.20;;;2.75;;
77298;SDS011;66361;52.034;20.656;2023-03-11T18:53:23;4.50;;;2.17;;
77298;SDS011;66361;52.034;20.656;2023-03-11T18:57:26;5.30;;;2.88;;
77298;SDS011;66361;52.034;20.656;2023-03-11T19:01:31;6.15;;;3.30;;
77298;SDS011;66361;52.034;20.656;2023-03-11T19:05:34;3.25;;;2.35;;
77298;SDS011;66361;52.034;20.656;2023-03-11T19:09:37;5.30;;;2.83;;
77298;SDS011;66361;52.034;20.656;2023-03-11T19:13:40;2.95;;;2.65;;
77298;SDS011;66361;52.034;20.656;2023-03-11T19:17:50;3.92;;;2.05;;
77298;SDS011;66361;52.034;20.656;2023-03-11T19:22:06;5.82;;;3.08;;
77298;SDS011;66361;52.034;20.656;2023-03-11T19:26:08;4.30;;;3.55;;
77298;SDS011;66361;52.034;20.656;2023-03-11T19:30:12;6.68;;;3.08;;
77298;SDS011;66361;52.034;20.656;2023-03-11T19:34:17;5.47;;;3.15;;
77298;SDS011;66361;52.034;20.656;2023-03-11T19:38:21;4.93;;;2.50;;
77298;SDS011;66361;52.034;20.656;2023-03-11T19:42:25;4.65;;;2.47;;
77298;SDS011;66361;52.034;20.656;2023-03-11T19:46:28;4.03;;;2.90;;
77298;SDS011;66361;52.034;20.656;2023-03-11T19:50:36;4.65;;;2.40;;
77298;SDS011;66361;52.034;20.656;2023-03-11T19:54:39;5.57;;;2.97;;
77298;SDS011;66361;52.034;20.656;2023-03-11T19:58:42;3.15;;;2.78;;
77298;SDS011;66361;52.034;20.656;2023-03-11T20:02:45;3.40;;;2.40;;
77298;SDS011;66361;52.034;20.656;2023-03-11T20:06:49;2.97;;;2.40;;
77298;SDS011;66361;52.034;20.656;2023-03-11T20:10:52;3.22;;;2.10;;
77298;SDS011;66361;52.034;20.656;2023-03-11T20:14:55;7.63;;;2.42;;
77298;SDS011;66361;52.034;20.656;2023-03-11T20:18:58;6.15;;;3.47;;
77298;SDS011;66361;52.034;20.656;2023-03-11T20:23:03;5.55;;;3.63;;
77298;SDS011;66361;52.034;20.656;2023-03-11T20:27:05;5.25;;;3.33;;
77298;SDS011;66361;52.034;20.656;2023-03-11T20:31:09;4.35;;;3.03;;
77298;SDS011;66361;52.034;20.656;2023-03-11T20:35:14;4.38;;;2.72;;
77298;SDS011;66361;52.034;20.656;2023-03-11T20:39:19;7.22;;;3.75;;
77298;SDS011;66361;52.034;20.656;2023-03-11T20:43:22;5.88;;;3.95;;
77298;SDS011;66361;52.034;20.656;2023-03-11T20:47:25;6.93;;;3.60;;
77298;SDS011;66361;52.034;20.656;2023-03-11T20:51:28;5.70;;;3.33;;
77298;SDS011;66361;52.034;20.656;2023-03-11T20:55:34;5.72;;;3.55;;
77298;SDS011;66361;52.034;20.656;2023-03-11T20:59:41;6.75;;;3.72;;
77298;SDS011;66361;52.034;20.656;2023-03-11T21:03:44;9.07;;;5.22;;
77298;SDS011;66361;52.034;20.656;2023-03-11T21:07:47;10.15;;;5.78;;
77298;SDS011;66361;52.034;20.656;2023-03-11T21:11:51;9.23;;;4.45;;
77298;SDS011;66361;52.034;20.656;2023-03-11T21:15:56;5.97;;;3.90;;
77298;SDS011;66361;52.034;20.656;2023-03-11T21:19:59;9.70;;;5.55;;
77298;SDS011;66361;52.034;20.656;2023-03-11T21:24:04;5.75;;;4.47;;
77298;SDS011;66361;52.034;20.656;2023-03-11T21:28:09;2.63;;;2.40;;
77298;SDS011;66361;52.034;20.656;2023-03-11T21:32:13;7.18;;;4.65;;
77298;SDS011;66361;52.034;20.656;2023-03-11T21:36:17;6.18;;;3.92;;
77298;SDS011;66361;52.034;20.656;2023-03-11T21:40:20;11.63;;;5.63;;
77298;SDS011;66361;52.034;20.656;2023-03-11T21:44:25;10.85;;;6.63;;
77298;SDS011;66361;52.034;20.656;2023-03-11T21:48:29;7.25;;;4.45;;
77298;SDS011;66361;52.034;20.656;2023-03-11T21:52:32;5.32;;;3.40;;
77298;SDS011;66361;52.034;20.656;2023-03-11T21:56:35;6.70;;;2.97;;
77298;SDS011;66361;52.034;20.656;2023-03-11T22:00:40;3.83;;;3.08;;
77298;SDS011;66361;52.034;20.656;2023-03-11T22:04:44;6.45;;;4.65;;
77298;SDS011;66361;52.034;20.656;2023-03-11T22:08:48;6.10;;;4.32;;
77298;SDS011;66361;52.034;20.656;2023-03-11T22:13:05;6.80;;;4.57;;
77298;SDS011;66361;52.034;20.656;2023-03-11T22:17:19;7.22;;;3.92;;
77298;SDS011;66361;52.034;20.656;2023-03-11T22:21:33;9.60;;;4.68;;
77298;SDS011;66361;52.034;20.656;2023-03-11T22:25:38;4.72;;;3.33;;
77298;SDS011;66361;52.034;20.656;2023-03-11T22:29:42;5.28;;;3.72;;
77298;SDS011;66361;52.034;20.656;2023-03-11T22:33:46;10.98;;;6.45;;
77298;SDS011;66361;52.034;20.656;2023-03-11T22:37:49;5.57;;;3.95;;
77298;SDS011;66361;52.034;20.656;2023-03-11T22:41:52;10.10;;;5.50;;
77298;SDS011;66361;52.034;20.656;2023-03-11T22:45:56;8.57;;;5.18;;
77298;SDS011;66361;52.034;20.656;2023-03-11T22:50:09;7.38;;;5.13;;
77298;SDS011;66361;52.034;20.656;2023-03-11T22:54:22;12.63;;;8.98;;
77298;SDS011;66361;52.034;20.656;2023-03-11T22:58:31;10.10;;;7.38;;
77298;SDS011;66361;52.034;20.656;2023-03-11T23:02:42;10.02;;;6.65;;
77298;SDS011;66361;52.034;20.656;2023-03-11T23:06:48;12.38;;;7.65;;
77298;SDS011;66361;52.034;20.656;2023-03-11T23:10:51;13.60;;;8.02;;
77298;SDS011;66361;52.034;20.656;2023-03-11T23:14:54;9.95;;;6.47;;
77298;SDS011;66361;52.034;20.656;2023-03-11T23:18:57;12.43;;;6.93;;
77298;SDS011;66361;52.034;20.656;2023-03-11T23:23:02;6.80;;;5.55;;
77298;SDS011;66361;52.034;20.656;2023-03-11T23:27:05;11.13;;;5.88;;
77298;SDS011;66361;52.034;20.656;2023-03-11T23:31:09;11.65;;;7.00;;
77298;SDS011;66361;52.034;20.656;2023-03-11T23:35:14;10.10;;;6.68;;
77298;SDS011;66361;52.034;20.656;2023-03-11T23:39:18;13.95;;;6.72;;
77298;SDS011;66361;52.034;20.656;2023-03-11T23:43:20;7.32;;;5.00;;
77298;SDS011;66361;52.034;20.656;2023-03-11T23:47:23;7.82;;;5.57;;
77298;SDS011;66361;52.034;20.656;2023-03-11T23:51:27;6.13;;;4.30;;
77298;SDS011;66361;52.034;20.656;2023-03-11T23:55:32;10.15;;;6.13;;
77298;SDS011;66361;52.034;20.656;2023-03-11T23:59:38;9.85;;;6.32;;
